Messwerte Jujuy

Temperatur

Temperatur
°C
1603245600 23.00 23.00 21
1603249200 0.00 0.00 21
1603252800 1.00 1.00
1603256400 2.00 2.00 20
1603260000 3.00 3.00 20
1603263600 4.00 4.00
1603267200 5.00 5.00 20
1603270800 6.00 6.00 19
1603274400 7.00 7.00 19
1603278000 8.00 8.00 19
1603281600 9.00 9.00 19
1603285200 10.00 10.00 21
1603288800 11.00 11.00 23
1603292400 12.00 12.00 26
1603296000 13.00 13.00 27
1603299600 14.00 14.00 30
1603303200 15.00 15.00 31
1603306800 16.00 16.00 31
1603310400 17.00 17.00 30
1603314000 18.00 18.00 29
1603317600 19.00 19.00 28
1603321200 20.00 20.00 27
1603324800 21.00 21.00 26
1603328400 22.00 22.00 26

Aktuellste Messwerte

Wettercharakter
Wetter: wechselnd bewölkt
Temperatur
26 °C
Feuchtigkeit
50 %
Wind
5 km/hWindrichtung: Nord
Luftdruck
1016 hPa
Messzeit: 21. Oktober 2020, 22.00Datenquelle: METAR

Weitere Messstationen in der Nähe

Messstation Temperatur Entfernung
Salta 21 °C 66 km
Tucuman 17 °C 274 km
Calama 17 °C 442 km

Wind

Windrichtung Böen Mittelwind
° km/h km/h
1603245600 23.00 22.00 - 23.00 200° 10
1603249200 0.00 23.00 - 0.00 180° 15
1603252800 1.00 0.00 - 1.00
1603256400 2.00 1.00 - 2.00 200° 5
1603260000 3.00 2.00 - 3.00 290° 5
1603263600 4.00 3.00 - 4.00
1603267200 5.00 4.00 - 5.00 50° 5
1603270800 6.00 5.00 - 6.00 0
1603274400 7.00 6.00 - 7.00 160° 10
1603278000 8.00 7.00 - 8.00 160° 10
1603281600 9.00 8.00 - 9.00 160° 5
1603285200 10.00 9.00 - 10.00 0
1603288800 11.00 10.00 - 11.00 0
1603292400 12.00 11.00 - 12.00 0
1603296000 13.00 12.00 - 13.00 140° 10
1603299600 14.00 13.00 - 14.00 140° 10
1603303200 15.00 14.00 - 15.00 90° 20
1603306800 16.00 15.00 - 16.00 70° 20
1603310400 17.00 16.00 - 17.00 50° 20
1603314000 18.00 17.00 - 18.00 70° 15
1603317600 19.00 18.00 - 19.00 50° 15
1603321200 20.00 19.00 - 20.00 50° 20
1603324800 21.00 20.00 - 21.00 20° 10
1603328400 22.00 21.00 - 22.00 360° 5

Ihre Wetterstation

Fehlt Ihre Wetterstation auf unserem Portal?

Schreiben Sie an network@meteonews.ch

Klima

Wann ist es am wärmsten? Wann regnet es am wenigsten? Unsere Klimadaten geben Auskunft.